Terminal Aerodrome Forecast
Issued by NWS Cleveland, OH

Home | Current Version | Previous Version | Graphics & Text | Print | Product List | Glossary On
Versions: 1 2 3 4 5 6 7 8 9 10 11 12 13
616
FTUS41 KCLE 200500
TAFTOL
TAF
KTOL 200522Z 2006/2106 28006KT P6SM BKN250
     FM202000 VRB03KT P6SM OVC100
     FM210400 VRB03KT P6SM OVC070=

USA.gov is the U.S. government's official web portal to all federal, state and local government web resources and services.